createdAt,value
2022-10-19T00:04:24.204Z,101051.53
2022-10-19T00:09:26.113Z,101051.47
2022-10-19T00:14:27.905Z,101041.06
2022-10-19T00:19:29.741Z,101033.25
2022-10-19T00:24:31.514Z,101037.44
2022-10-19T00:29:33.272Z,101034.81
2022-10-19T00:34:35.003Z,101031.63
2022-10-19T00:39:36.810Z,101030.78
2022-10-19T00:44:38.493Z,101017.88
2022-10-19T00:49:44.293Z,101015.75
2022-10-19T00:54:49.054Z,101018.91
2022-10-19T00:59:51.854Z,101015.97
2022-10-19T01:04:54.032Z,101021.16
2022-10-19T01:09:56.273Z,101027.94
2022-10-19T01:15:13.662Z,101019.16
2022-10-19T01:20:46.203Z,101025.34
2022-10-19T01:26:22.123Z,101022.94
2022-10-19T01:31:42.243Z,101023.16
2022-10-19T01:37:02.755Z,101022.66
2022-10-19T01:42:24.014Z,101012.53
2022-10-19T01:47:41.565Z,101012.50
2022-10-19T01:52:44.193Z,101014.22
2022-10-19T01:57:57.163Z,101024.00
2022-10-19T02:03:00.763Z,101019.69
2022-10-19T02:08:12.273Z,101017.31
2022-10-19T02:13:16.646Z,101010.03
2022-10-19T02:18:26.896Z,101007.09
2022-10-19T02:23:28.725Z,101004.53
2022-10-19T02:28:31.006Z,101001.72
2022-10-19T02:33:32.975Z,101002.00
2022-10-19T02:38:34.847Z,100989.25
2022-10-19T02:43:40.138Z,100987.81
2022-10-19T02:48:43.003Z,100987.81
2022-10-19T02:53:44.781Z,100980.31
2022-10-19T02:58:46.547Z,100991.28
2022-10-19T03:03:48.616Z,100991.53
2022-10-19T03:08:51.165Z,100985.22
2022-10-19T03:13:52.955Z,100987.16
2022-10-19T03:18:55.213Z,100989.47
2022-10-19T03:23:56.975Z,100982.53
2022-10-19T03:28:58.791Z,100981.03
2022-10-19T03:34:00.583Z,100984.03
2022-10-19T03:39:05.145Z,100982.19
2022-10-19T03:44:07.743Z,100975.09
2022-10-19T03:49:13.991Z,100973.25
2022-10-19T03:54:17.410Z,100971.13
2022-10-19T03:59:19.135Z,100969.88
2022-10-19T04:04:20.960Z,100980.69
2022-10-19T04:09:23.209Z,100983.69
2022-10-19T04:14:32.430Z,100979.75
2022-10-19T04:19:34.783Z,100971.28
2022-10-19T04:24:36.540Z,100977.84
2022-10-19T04:29:38.412Z,100990.81
2022-10-19T04:34:40.289Z,100991.06
2022-10-19T04:39:43.535Z,100985.41
2022-10-19T04:44:45.354Z,100994.84
2022-10-19T04:49:47.108Z,100993.59
2022-10-19T04:54:48.836Z,100988.03
2022-10-19T04:59:50.577Z,100988.94
2022-10-19T05:04:52.330Z,100994.66
2022-10-19T05:09:54.063Z,100990.34
2022-10-19T05:14:55.808Z,100990.81
2022-10-19T05:19:57.715Z,100987.22
2022-10-19T05:24:59.475Z,100982.53
2022-10-19T05:30:01.296Z,100980.34
2022-10-19T05:35:03.165Z,100981.19
2022-10-19T05:40:05.516Z,100983.47
2022-10-19T05:45:07.646Z,100976.09
2022-10-19T05:50:09.765Z,100983.34
2022-10-19T05:55:11.625Z,100979.88
2022-10-19T06:00:13.767Z,100978.34
2022-10-19T06:05:15.555Z,100983.28
2022-10-19T06:10:17.812Z,100976.00
2022-10-19T06:15:19.551Z,100986.91
2022-10-19T06:20:21.425Z,100988.81
2022-10-19T06:25:23.279Z,100993.69
2022-10-19T06:30:25.426Z,100996.44
2022-10-19T06:35:27.769Z,100995.47
2022-10-19T06:40:29.681Z,100995.13
2022-10-19T06:45:35.682Z,100998.63
2022-10-19T06:50:38.013Z,101008.03
2022-10-19T06:55:39.825Z,101009.97
2022-10-19T07:00:41.693Z,101006.06
2022-10-19T07:05:43.535Z,101014.94
2022-10-19T07:10:49.397Z,101014.47
2022-10-19T07:16:05.807Z,101024.78
2022-10-19T07:21:10.984Z,101033.69
2022-10-19T07:26:15.909Z,101041.25
2022-10-19T07:31:22.354Z,101041.25
2022-10-19T07:36:25.466Z,101044.88
2022-10-19T07:41:27.716Z,101037.91
2022-10-19T07:46:33.715Z,101030.94
2022-10-19T07:51:36.235Z,101038.41
2022-10-19T07:56:38.104Z,101037.69
2022-10-19T08:01:45.283Z,101035.31
2022-10-19T08:06:47.230Z,101038.56
2022-10-19T08:11:49.105Z,101030.75
2022-10-19T08:16:51.537Z,101033.69
2022-10-19T08:21:53.517Z,101037.50
2022-10-19T08:26:55.809Z,101023.66
2022-10-19T08:31:57.658Z,101027.16
2022-10-19T08:37:06.755Z,101019.78
2022-10-19T08:42:20.268Z,101011.97
2022-10-19T08:47:33.932Z,101015.25
2022-10-19T08:52:36.929Z,101011.28
2022-10-19T08:57:47.797Z,101011.22
2022-10-19T09:02:57.079Z,101010.97
2022-10-19T09:07:59.506Z,100998.53
2022-10-19T09:13:07.638Z,100989.84
2022-10-19T09:18:14.910Z,100984.66
2022-10-19T09:23:44.248Z,100977.94
2022-10-19T09:28:58.706Z,100967.41
2022-10-19T09:34:05.860Z,100976.81
2022-10-19T09:39:12.488Z,100967.19
2022-10-19T09:44:14.330Z,100956.34
2022-10-19T09:49:16.198Z,100955.78
2022-10-19T09:54:39.600Z,100954.19
2022-10-19T09:59:42.846Z,100948.28
2022-10-19T10:05:07.092Z,100946.31
2022-10-19T10:10:30.556Z,100948.56
2022-10-19T10:15:57.229Z,100945.59
2022-10-19T10:21:25.813Z,100944.38
2022-10-19T10:26:28.547Z,100944.69
2022-10-19T10:31:31.119Z,100938.56
2022-10-19T10:36:34.022Z,100930.97
2022-10-19T10:41:41.028Z,100930.03
2022-10-19T10:47:03.494Z,100928.34
2022-10-19T10:52:10.297Z,100913.78
2022-10-19T10:57:20.566Z,100906.69
2022-10-19T11:02:30.589Z,100911.09
2022-10-19T11:07:35.283Z,100892.84
2022-10-19T11:12:46.601Z,100886.28
2022-10-19T11:18:21.718Z,100874.13
2022-10-19T11:23:44.580Z,100868.34
2022-10-19T11:28:55.379Z,100861.44
2022-10-19T11:34:07.108Z,100849.56
2022-10-19T11:39:15.499Z,100849.53
2022-10-19T11:44:37.631Z,100838.31
2022-10-19T11:49:50.491Z,100830.38
2022-10-19T11:55:32.078Z,100822.91
2022-10-19T12:01:03.946Z,100808.69
2022-10-19T12:06:36.498Z,100801.28
2022-10-19T12:12:03.215Z,100788.75
2022-10-19T12:17:34.254Z,100792.91
2022-10-19T12:22:38.037Z,100791.59
2022-10-19T12:27:41.728Z,100775.63
2022-10-19T12:33:03.674Z,100763.31
2022-10-19T12:38:47.982Z,100755.50
2022-10-19T12:43:59.317Z,100736.81
2022-10-19T12:49:29.384Z,100732.66
2022-10-19T12:54:38.154Z,100741.69
2022-10-19T12:59:40.055Z,100715.59
2022-10-19T13:04:53.605Z,100710.59
2022-10-19T13:10:05.717Z,100707.22
2022-10-19T13:15:36.064Z,100692.53
2022-10-19T13:26:07.543Z,100672.38
2022-10-19T13:31:34.254Z,100672.78
2022-10-19T13:36:39.461Z,100669.84
2022-10-19T13:41:49.405Z,100664.78
2022-10-19T13:47:23.082Z,100655.94
2022-10-19T13:52:55.868Z,100659.47
2022-10-19T13:58:17.225Z,100657.53
2022-10-19T14:03:37.085Z,100660.06
2022-10-19T14:09:05.068Z,100653.22
2022-10-19T14:14:10.726Z,100649.72
2022-10-19T14:19:27.511Z,100650.94
2022-10-19T14:24:36.117Z,100657.22
2022-10-19T14:29:47.876Z,100650.34
2022-10-19T14:34:51.062Z,100649.38
2022-10-19T14:40:02.012Z,100644.16
2022-10-19T14:45:04.648Z,100649.94
2022-10-19T14:50:08.595Z,100646.94
2022-10-19T14:55:19.067Z,100638.38
2022-10-19T15:00:22.462Z,100633.97
2022-10-19T15:05:29.383Z,100620.13
2022-10-19T15:10:45.825Z,100602.81
2022-10-19T15:15:51.623Z,100595.56
2022-10-19T15:21:13.163Z,100582.06
2022-10-19T15:26:20.239Z,100585.34
2022-10-19T15:31:29.989Z,100585.50
2022-10-19T15:36:33.882Z,100577.13
2022-10-19T15:41:39.681Z,100583.53
2022-10-19T15:46:48.166Z,100588.03
2022-10-19T15:51:50.699Z,100588.44
2022-10-19T15:56:53.269Z,100587.31
2022-10-19T16:01:56.163Z,100589.47
2022-10-19T16:06:58.265Z,100589.16
2022-10-19T16:12:00.031Z,100585.06
2022-10-19T16:17:01.845Z,100580.84
2022-10-19T16:22:03.774Z,100576.75
2022-10-19T16:27:06.899Z,100571.44
2022-10-19T16:32:09.220Z,100567.22
2022-10-19T16:37:11.101Z,100562.22
2022-10-19T16:42:12.965Z,100552.91
2022-10-19T16:47:17.178Z,100562.09
2022-10-19T16:52:19.034Z,100548.38
2022-10-19T16:57:20.866Z,100550.94
2022-10-19T17:02:23.881Z,100547.28
2022-10-19T17:07:26.597Z,100554.78
2022-10-19T17:12:28.460Z,100560.41
2022-10-19T17:17:30.318Z,100565.13
2022-10-19T17:22:32.199Z,100572.03
2022-10-19T17:27:34.059Z,100569.00
2022-10-19T17:32:36.142Z,100569.66
2022-10-19T17:37:38.324Z,100564.88
2022-10-19T17:42:40.309Z,100566.53
2022-10-19T17:47:42.127Z,100567.00
2022-10-19T17:52:43.917Z,100561.91
2022-10-19T17:57:46.141Z,100561.72
2022-10-19T18:02:49.366Z,100553.03
2022-10-19T18:07:51.640Z,100556.56
2022-10-19T18:12:53.549Z,100564.25
2022-10-19T18:17:56.099Z,100562.88
2022-10-19T18:22:57.938Z,100558.41
2022-10-19T18:27:59.824Z,100559.81
2022-10-19T18:33:01.855Z,100547.56
2022-10-19T18:38:04.974Z,100549.38
2022-10-19T18:43:06.979Z,100538.34
2022-10-19T18:48:08.974Z,100530.97
2022-10-19T18:53:10.830Z,100528.63
2022-10-19T18:58:12.925Z,100523.91
2022-10-19T19:03:14.750Z,100518.75
2022-10-19T19:08:16.726Z,100505.91
2022-10-19T19:13:18.779Z,100505.84
2022-10-19T19:18:21.138Z,100502.09
2022-10-19T19:23:22.926Z,100508.66
2022-10-19T19:28:24.744Z,100517.88
2022-10-19T19:33:26.586Z,100517.47
2022-10-19T19:38:28.516Z,100514.47
2022-10-19T19:43:33.012Z,100521.75
2022-10-19T19:48:35.486Z,100506.25
2022-10-19T19:53:38.218Z,100501.81
2022-10-19T19:58:43.012Z,100506.50
2022-10-19T20:03:47.248Z,100511.81
2022-10-19T20:08:49.392Z,100505.88
2022-10-19T20:13:52.223Z,100489.94
2022-10-19T20:19:00.253Z,100488.47
2022-10-19T20:24:02.327Z,100488.53
2022-10-19T20:29:05.331Z,100486.91
2022-10-19T20:34:09.177Z,100488.22
2022-10-19T20:39:11.013Z,100485.00
2022-10-19T20:44:12.898Z,100475.00
2022-10-19T20:49:14.798Z,100478.13
2022-10-19T20:54:16.831Z,100475.81
2022-10-19T20:59:21.791Z,100476.19
2022-10-19T21:04:25.059Z,100472.22
2022-10-19T21:09:27.189Z,100478.53
2022-10-19T21:14:30.279Z,100460.44
2022-10-19T21:19:32.239Z,100452.53
2022-10-19T21:24:36.159Z,100459.75
2022-10-19T21:29:38.174Z,100451.47
2022-10-19T21:34:39.922Z,100445.69
2022-10-19T21:39:41.755Z,100448.00
2022-10-19T21:44:43.614Z,100455.19
2022-10-19T21:49:45.466Z,100444.97
2022-10-19T21:54:47.445Z,100438.03
2022-10-19T21:59:49.304Z,100435.72
2022-10-19T22:04:51.155Z,100444.41
2022-10-19T22:09:53.242Z,100443.03
2022-10-19T22:14:55.185Z,100451.72
2022-10-19T22:19:57.045Z,100440.13
2022-10-19T22:24:58.782Z,100432.19
2022-10-19T22:30:00.565Z,100419.53
2022-10-19T22:35:02.394Z,100421.38
2022-10-19T22:40:04.594Z,100414.47
2022-10-19T22:45:07.080Z,100416.44
2022-10-19T22:50:11.959Z,100417.63
2022-10-19T22:55:13.931Z,100397.78
2022-10-19T23:00:15.921Z,100393.75
2022-10-19T23:05:17.740Z,100383.53
2022-10-19T23:10:19.556Z,100381.28
2022-10-19T23:15:22.008Z,100370.44
2022-10-19T23:20:23.748Z,100366.75
2022-10-19T23:25:25.597Z,100370.28
2022-10-19T23:30:27.410Z,100352.72
2022-10-19T23:35:29.154Z,100345.31
2022-10-19T23:40:30.856Z,100348.38
2022-10-19T23:45:32.817Z,100341.75
2022-10-19T23:50:34.528Z,100345.19
2022-10-19T23:55:36.370Z,100335.94
